Time;durP1;ratioP1;P1;durP2;ratioP2;P2;SDS_P1;SDS_P2;PMS_P1;PMS_P2;Temp;Humidity;BMP_temperature;BMP_pressure;BME280_temperature;BME280_humidity;BME280_pressure;Samples;Min_cycle;Max_cycle;Signal;HPM_P1;HPM_P2
2023/03/12 00:01:00;;;;;;;;;;;;;;;27.68;59.67;101242.09;5065236;27;70814;-39
2023/03/12 00:03:30;;;;;;;;;;;;;;;27.71;59.72;101257.88;5047402;28;66508;-37
2023/03/12 00:06:02;;;;;;;;;;;;;;;27.70;60.04;101250.81;5052905;28;70630;-38
2023/03/12 00:08:39;;;;;;;;;;;;;;;27.72;59.77;101251.44;5052085;28;66391;-41
2023/03/12 00:11:11;;;;;;;;;;;;;;;27.76;59.91;101250.06;5051406;28;69931;-38
2023/03/12 00:13:42;;;;;;;;;;;;;;;27.76;59.87;101242.81;5078304;27;66008;-38
2023/03/12 00:16:14;;;;;;;;;;;;;;;27.79;59.97;101246.97;5045422;28;68948;-38
2023/03/12 00:18:46;;;;;;;;;;;;;;;27.79;59.94;101249.69;5056150;27;65837;-38
2023/03/12 00:21:17;;;;;;;;;;;;;;;27.81;60.20;101250.38;5044644;28;69390;-39
2023/03/12 00:23:48;;;;;;;;;;;;;;;27.82;60.89;101255.53;5046992;28;66869;-38
2023/03/12 00:26:19;;;;;;;;;;;;;;;27.84;61.77;101253.50;5051901;28;69956;-39
2023/03/12 00:28:50;;;;;;;;;;;;;;;27.89;62.33;101257.47;5054603;27;66204;-38
2023/03/12 00:31:22;;;;;;;;;;;;;;;27.92;62.46;101265.22;5055366;28;69980;-37
2023/03/12 00:33:53;;;;;;;;;;;;;;;27.95;62.78;101260.25;5082623;27;66395;-38
2023/03/12 00:36:27;;;;;;;;;;;;;;;27.96;62.81;101275.41;5057847;27;70046;-38
2023/03/12 00:38:59;;;;;;;;;;;;;;;27.99;63.05;101271.50;5054099;28;66801;-38
2023/03/12 00:41:29;;;;;;;;;;;;;;;28.01;63.00;101272.97;5054732;28;70648;-38
2023/03/12 00:44:00;;;;;;;;;;;;;;;28.03;63.59;101273.63;5048379;28;66143;-40
2023/03/12 00:46:30;;;;;;;;;;;;;;;28.06;63.84;101285.88;5054659;28;69174;-38
2023/03/12 00:49:03;;;;;;;;;;;;;;;28.11;63.38;101288.00;5050286;27;66100;-38
2023/03/12 00:51:33;;;;;;;;;;;;;;;28.13;63.90;101288.63;5046541;28;70540;-40
2023/03/12 00:54:04;;;;;;;;;;;;;;;28.16;63.46;101290.94;5048614;27;66640;-39
2023/03/12 00:56:34;;;;;;;;;;;;;;;28.19;63.44;101287.88;5050588;28;70556;-39
2023/03/12 00:59:05;;;;;;;;;;;;;;;28.19;63.55;101287.88;5081880;27;65907;-40
2023/03/12 01:01:35;;;;;;;;;;;;;;;28.19;63.55;101282.47;5048900;27;70743;-40
2023/03/12 01:04:05;;;;;;;;;;;;;;;28.23;64.04;101292.69;5045424;28;66902;-39
2023/03/12 01:06:36;;;;;;;;;;;;;;;28.29;63.87;101291.09;5055480;28;70267;-38
2023/03/12 01:09:08;;;;;;;;;;;;;;;28.22;64.21;101298.28;5053458;28;66759;-40
2023/03/12 01:11:38;;;;;;;;;;;;;;;28.16;64.12;101296.34;5051898;27;70764;-38
2023/03/12 01:14:09;;;;;;;;;;;;;;;28.12;64.15;101304.00;5055452;28;66670;-39
2023/03/12 01:16:39;;;;;;;;;;;;;;;28.12;63.24;101297.78;5051288;28;70255;-39
2023/03/12 01:19:09;;;;;;;;;;;;;;;28.13;62.41;101305.66;5052629;28;65353;-37
2023/03/12 01:21:40;;;;;;;;;;;;;;;28.15;62.18;101302.78;5068559;27;70200;-38
2023/03/12 01:24:11;;;;;;;;;;;;;;;28.17;62.43;101311.53;5049291;28;66432;-38
2023/03/12 01:26:42;;;;;;;;;;;;;;;28.21;63.52;101307.41;5050366;28;69391;-38
2023/03/12 01:29:12;;;;;;;;;;;;;;;28.20;63.65;101313.84;5066360;27;65395;-38
2023/03/12 01:31:42;;;;;;;;;;;;;;;28.12;64.26;101313.94;5047345;28;69722;-39
2023/03/12 01:34:13;;;;;;;;;;;;;;;28.07;63.90;101318.03;5044748;28;65702;-40
2023/03/12 01:36:45;;;;;;;;;;;;;;;28.06;64.13;101316.38;5077411;27;69300;-38
2023/03/12 01:39:15;;;;;;;;;;;;;;;28.06;64.43;101320.94;5046806;28;66537;-38
2023/03/12 01:41:45;;;;;;;;;;;;;;;28.04;64.03;101323.00;5045388;27;68490;-39
2023/03/12 01:44:16;;;;;;;;;;;;;;;28.04;64.12;101323.00;5046341;27;66327;-39
2023/03/12 01:46:46;;;;;;;;;;;;;;;28.03;64.40;101322.16;5042668;27;69268;-39
2023/03/12 01:49:21;;;;;;;;;;;;;;;28.04;64.16;101321.13;5042821;28;66570;-38
2023/03/12 01:51:55;;;;;;;;;;;;;;;28.05;64.31;101314.72;5044328;28;70060;-37
2023/03/12 01:54:49;;;;;;;;;;;;;;;28.10;64.58;101321.41;5045116;28;66493;-40
2023/03/12 01:57:33;;;;;;;;;;;;;;;28.12;63.94;101325.56;5052467;28;70464;-39
2023/03/12 02:00:15;;;;;;;;;;;;;;;28.14;63.28;101328.06;5053327;28;66433;-40
2023/03/12 02:02:48;;;;;;;;;;;;;;;28.20;62.74;101327.31;5058263;27;70659;-39
2023/03/12 02:05:28;;;;;;;;;;;;;;;28.26;63.02;101331.94;5060751;27;66073;-39
2023/03/12 02:07:59;;;;;;;;;;;;;;;28.34;62.57;101331.81;5077449;27;69808;-38
2023/03/12 02:10:30;;;;;;;;;;;;;;;28.38;62.25;101330.41;5044306;28;65635;-38
2023/03/12 02:13:00;;;;;;;;;;;;;;;28.44;62.57;101335.03;5041886;27;69607;-40
2023/03/12 02:15:31;;;;;;;;;;;;;;;28.24;62.83;101297.06;5052250;28;66444;-39
2023/03/12 02:18:03;;;;;;;;;;;;;;;28.52;62.31;101332.22;5047982;28;69803;-40
2023/03/12 02:20:36;;;;;;;;;;;;;;;28.57;61.71;101328.13;5039061;28;66991;-41
2023/03/12 02:23:13;;;;;;;;;;;;;;;28.62;61.66;101337.31;5042425;28;69706;-41
2023/03/12 02:25:46;;;;;;;;;;;;;;;28.68;61.57;101330.28;5081122;27;66990;-40
2023/03/12 02:28:18;;;;;;;;;;;;;;;28.71;61.46;101329.91;5051529;27;70510;-40
2023/03/12 02:30:50;;;;;;;;;;;;;;;28.74;61.81;101335.72;5043459;28;67381;-40
2023/03/12 02:33:21;;;;;;;;;;;;;;;28.78;61.73;101341.59;5058614;27;69570;-42
2023/03/12 02:35:52;;;;;;;;;;;;;;;28.80;61.55;101336.81;5055427;28;66296;-40
2023/03/12 02:38:27;;;;;;;;;;;;;;;28.84;61.46;101338.13;5057515;28;71089;-40
2023/03/12 02:40:59;;;;;;;;;;;;;;;28.87;61.51;101340.41;5048882;28;65768;-40
2023/03/12 02:43:30;;;;;;;;;;;;;;;28.90;61.08;101337.31;5050767;28;69736;-40
2023/03/12 02:46:00;;;;;;;;;;;;;;;28.93;61.34;101339.63;5052969;27;66095;-42
2023/03/12 02:48:31;;;;;;;;;;;;;;;28.96;60.69;101333.00;5042654;27;70623;-41
2023/03/12 02:51:02;;;;;;;;;;;;;;;28.99;60.72;101331.78;5053787;28;67450;-41
2023/03/12 02:53:32;;;;;;;;;;;;;;;29.03;61.19;101338.44;5055262;28;70020;-40
2023/03/12 02:56:03;;;;;;;;;;;;;;;29.05;60.68;101331.00;5044768;28;67390;-40
2023/03/12 02:58:35;;;;;;;;;;;;;;;29.08;61.17;101336.03;5046186;28;69890;-41
2023/03/12 03:01:05;;;;;;;;;;;;;;;29.11;60.61;101324.81;5064033;28;65401;-40
2023/03/12 03:03:36;;;;;;;;;;;;;;;29.14;60.50;101319.88;5054530;28;71533;-40
2023/03/12 03:06:06;;;;;;;;;;;;;;;29.17;60.51;101324.06;5057021;28;67776;-40
2023/03/12 03:08:37;;;;;;;;;;;;;;;29.19;60.50;101316.56;5047997;28;69805;-40
2023/03/12 03:11:07;;;;;;;;;;;;;;;29.23;60.93;101312.44;5052231;28;66423;-42
2023/03/12 03:13:38;;;;;;;;;;;;;;;29.25;60.84;101310.34;5055691;28;70499;-40
2023/03/12 03:16:11;;;;;;;;;;;;;;;29.28;60.33;101315.38;5054670;28;67134;-42
2023/03/12 03:18:41;;;;;;;;;;;;;;;29.30;60.20;101310.59;5068312;27;70161;-40
2023/03/12 03:21:15;;;;;;;;;;;;;;;29.33;60.29;101312.91;5055936;28;66910;-41
2023/03/12 03:23:47;;;;;;;;;;;;;;;29.35;60.65;101308.13;5045731;28;70551;-43
2023/03/12 03:26:19;;;;;;;;;;;;;;;29.38;60.59;101299.63;5083226;27;65982;-40
2023/03/12 03:28:51;;;;;;;;;;;;;;;29.38;60.21;101287.97;5053070;28;70441;-41
2023/03/12 03:31:21;;;;;;;;;;;;;;;29.41;60.57;101292.97;5044822;28;66363;-41
2023/03/12 03:33:51;;;;;;;;;;;;;;;29.44;60.67;101291.75;5050476;28;70138;-41
2023/03/12 03:36:22;;;;;;;;;;;;;;;28.96;60.11;101211.47;5053819;28;66199;-40
2023/03/12 03:39:03;;;;;;;;;;;;;;;29.49;60.55;101284.72;5049858;28;69509;-41
2023/03/12 03:41:34;;;;;;;;;;;;;;;29.51;60.75;101279.13;5060140;27;66273;-40
2023/03/12 03:44:06;;;;;;;;;;;;;;;29.51;60.93;101271.00;5045167;28;70762;-40
2023/03/12 03:46:39;;;;;;;;;;;;;;;29.44;61.35;101270.97;5040372;27;66164;-41
2023/03/12 03:49:11;;;;;;;;;;;;;;;29.42;61.34;101272.19;5078042;27;70506;-40
2023/03/12 03:51:42;;;;;;;;;;;;;;;29.45;61.03;101267.25;5046690;28;66212;-41
2023/03/12 03:54:17;;;;;;;;;;;;;;;29.49;60.43;101262.25;5050979;28;70285;-42
2023/03/12 03:56:47;;;;;;;;;;;;;;;29.54;60.67;101252.50;5082289;27;66821;-40
2023/03/12 03:59:18;;;;;;;;;;;;;;;29.59;60.71;101246.50;5079064;27;70457;-40
2023/03/12 04:01:49;;;;;;;;;;;;;;;29.62;60.16;101241.50;5056647;28;66452;-41
2023/03/12 04:04:19;;;;;;;;;;;;;;;29.66;60.39;101231.16;5054558;28;70208;-41
2023/03/12 04:06:50;;;;;;;;;;;;;;;29.69;59.80;101236.16;5054638;28;66974;-41
2023/03/12 04:09:20;;;;;;;;;;;;;;;29.71;59.90;101228.66;5047810;28;70239;-41
2023/03/12 04:11:52;;;;;;;;;;;;;;;29.75;59.78;101227.22;5051176;28;66307;-41
2023/03/12 04:14:22;;;;;;;;;;;;;;;29.78;60.03;101221.44;5050752;28;70119;-41
2023/03/12 04:16:53;;;;;;;;;;;;;;;29.79;59.58;101214.97;5087173;27;65417;-41
2023/03/12 04:19:24;;;;;;;;;;;;;;;29.83;59.58;101220.78;5048446;28;70106;-42
2023/03/12 04:21:54;;;;;;;;;;;;;;;29.87;59.74;101211.25;5065061;27;66448;-40
2023/03/12 04:24:25;;;;;;;;;;;;;;;29.89;59.37;101198.31;5050781;27;70703;-41
2023/03/12 04:26:56;;;;;;;;;;;;;;;29.89;60.29;101197.50;5060119;27;65967;-40
2023/03/12 04:29:28;;;;;;;;;;;;;;;29.90;60.16;101193.78;5085348;27;70307;-41
2023/03/12 04:31:58;;;;;;;;;;;;;;;29.92;60.01;101191.66;5040709;28;66217;-40
2023/03/12 04:34:29;;;;;;;;;;;;;;;29.96;60.04;101182.13;5049736;28;69904;-42
2023/03/12 04:37:01;;;;;;;;;;;;;;;30.01;60.24;101175.06;5066303;27;66645;-43
2023/03/12 04:39:32;;;;;;;;;;;;;;;30.05;59.91;101178.16;5047935;28;69569;-42
2023/03/12 04:42:03;;;;;;;;;;;;;;;30.01;60.67;101175.06;5044080;27;66850;-43
2023/03/12 04:44:34;;;;;;;;;;;;;;;29.95;60.90;101169.63;5052531;28;69728;-44
2023/03/12 04:47:04;;;;;;;;;;;;;;;29.95;60.96;101169.63;5054086;27;66937;-42
2023/03/12 04:49:37;;;;;;;;;;;;;;;29.99;60.15;101160.06;5055892;28;70365;-40
2023/03/12 04:52:07;;;;;;;;;;;;;;;30.05;60.30;101153.81;5051119;28;65696;-42
2023/03/12 04:54:38;;;;;;;;;;;;;;;30.10;59.70;101140.50;5088526;27;69724;-42
2023/03/12 04:57:08;;;;;;;;;;;;;;;30.14;59.58;101147.16;5044664;28;66020;-41
2023/03/12 04:59:39;;;;;;;;;;;;;;;30.18;59.45;101137.59;5060653;27;70147;-43
2023/03/12 05:02:09;;;;;;;;;;;;;;;30.21;59.10;101126.34;5049529;27;67207;-43
2023/03/12 05:04:41;;;;;;;;;;;;;;;30.25;59.23;101122.19;5036593;28;69253;-43
2023/03/12 05:07:11;;;;;;;;;;;;;;;30.28;58.88;101127.22;5065683;28;65535;-41
2023/03/12 05:09:43;;;;;;;;;;;;;;;30.31;58.94;101125.09;5087062;27;70031;-41
2023/03/12 05:12:13;;;;;;;;;;;;;;;30.34;58.57;101119.25;5051852;28;68014;-49
2023/03/12 05:14:43;;;;;;;;;;;;;;;30.36;58.57;101111.78;5054293;28;69817;-41
2023/03/12 05:17:14;;;;;;;;;;;;;;;30.38;58.40;101110.53;5080582;27;65263;-42
2023/03/12 05:19:44;;;;;;;;;;;;;;;30.41;58.58;101104.69;5050274;28;69371;-44
2023/03/12 05:22:15;;;;;;;;;;;;;;;30.41;58.71;101103.84;5050932;27;66719;-42
2023/03/12 05:24:45;;;;;;;;;;;;;;;30.33;58.58;101095.97;5053134;28;69867;-40
2023/03/12 05:27:16;;;;;;;;;;;;;;;30.13;56.93;101095.97;5048748;28;65955;-39
2023/03/12 05:29:47;;;;;;;;;;;;;;;29.84;54.85;101088.09;5048281;28;71604;-40
2023/03/12 05:32:17;;;;;;;;;;;;;;;29.67;54.02;101097.66;5062375;27;66986;-42
2023/03/12 05:34:49;;;;;;;;;;;;;;;29.56;54.29;101087.41;5078608;27;69320;-40
2023/03/12 05:37:19;;;;;;;;;;;;;;;29.54;54.12;101092.19;5052639;28;66682;-40
2023/03/12 05:39:52;;;;;;;;;;;;;;;29.43;53.96;101079.28;5044572;28;69929;-40
2023/03/12 05:42:23;;;;;;;;;;;;;;;29.32;52.60;101076.16;5047183;27;66081;-40
2023/03/12 05:44:55;;;;;;;;;;;;;;;29.23;52.30;101066.59;5061950;27;67518;-40
2023/03/12 05:47:27;;;;;;;;;;;;;;;29.13;51.59;101058.03;5041875;28;66390;-41
2023/03/12 05:49:57;;;;;;;;;;;;;;;29.07;51.07;101056.16;5078439;27;69430;-40
2023/03/12 05:52:28;;;;;;;;;;;;;;;28.98;50.34;101060.88;5053828;28;66378;-41
2023/03/12 05:54:59;;;;;;;;;;;;;;;28.93;49.59;101047.97;5041717;28;71127;-41
2023/03/12 05:57:29;;;;;;;;;;;;;;;28.89;49.50;101041.34;5063289;27;64949;-40
2023/03/12 06:00:02;;;;;;;;;;;;;;;28.83;48.95;101041.28;5046059;28;69361;-40
2023/03/12 06:02:40;;;;;;;;;;;;;;;28.77;48.02;101037.53;5047626;28;66937;-41
2023/03/12 06:05:11;;;;;;;;;;;;;;;28.75;48.06;101034.19;5065380;27;70851;-40
2023/03/12 06:07:41;;;;;;;;;;;;;;;28.73;47.38;101041.69;5062466;27;66402;-40
2023/03/12 06:10:12;;;;;;;;;;;;;;;28.70;46.78;101031.28;5062695;28;70037;-41
2023/03/12 06:12:42;;;;;;;;;;;;;;;28.69;46.75;101025.03;5062744;28;66734;-42
2023/03/12 06:15:13;;;;;;;;;;;;;;;28.64;46.30;101032.06;5053653;28;71858;-40
2023/03/12 06:17:44;;;;;;;;;;;;;;;28.63;45.98;101022.31;5053183;28;66389;-42
2023/03/12 06:20:14;;;;;;;;;;;;;;;28.60;45.63;101014.63;5044213;28;70376;-40
2023/03/12 06:22:45;;;;;;;;;;;;;;;28.57;45.23;101009.66;5052217;27;66890;-41
2023/03/12 06:25:15;;;;;;;;;;;;;;;28.54;44.76;101004.66;5051014;28;69685;-40
2023/03/12 06:27:46;;;;;;;;;;;;;;;28.50;44.61;101005.06;5054214;28;65357;-40
2023/03/12 06:30:17;;;;;;;;;;;;;;;28.49;43.93;101002.56;5046084;27;70621;-43
2023/03/12 06:32:47;;;;;;;;;;;;;;;28.48;43.83;100990.09;5052686;28;66786;-41
2023/03/12 06:35:18;;;;;;;;;;;;;;;28.47;43.65;101000.06;5053446;28;70382;-43
2023/03/12 06:37:48;;;;;;;;;;;;;;;28.48;43.13;100995.50;5046209;28;66605;-41
2023/03/12 06:40:18;;;;;;;;;;;;;;;28.47;42.83;100983.88;5049518;28;69602;-41
2023/03/12 06:42:49;;;;;;;;;;;;;;;28.49;42.63;100987.19;5049631;28;66392;-39
2023/03/12 06:45:19;;;;;;;;;;;;;;;28.49;42.83;100976.38;5046432;28;69675;-40
2023/03/12 06:47:50;;;;;;;;;;;;;;;28.57;43.09;100971.88;5087335;27;67047;-40
2023/03/12 06:50:20;;;;;;;;;;;;;;;28.59;43.69;100972.50;5042833;28;70300;-42
2023/03/12 06:52:50;;;;;;;;;;;;;;;28.60;43.53;100971.44;5047497;28;66250;-41
2023/03/12 06:55:21;;;;;;;;;;;;;;;28.60;43.58;100961.47;5047954;28;70213;-42
2023/03/12 06:57:51;;;;;;;;;;;;;;;28.64;43.43;100959.19;5050156;28;66411;-40
2023/03/12 07:00:22;;;;;;;;;;;;;;;28.66;43.65;100943.66;5056528;28;70519;-41
2023/03/12 07:02:52;;;;;;;;;;;;;;;28.69;43.79;100945.94;5050280;28;66058;-41
2023/03/12 07:05:23;;;;;;;;;;;;;;;28.71;43.59;100951.97;5049691;28;70330;-41
2023/03/12 07:07:58;;;;;;;;;;;;;;;28.75;43.30;100945.09;5050498;28;64108;-39
2023/03/12 07:10:28;;;;;;;;;;;;;;;28.77;43.63;100934.94;5044586;28;68945;-40
2023/03/12 07:12:58;;;;;;;;;;;;;;;28.81;43.44;100922.72;5080512;27;65591;-40
2023/03/12 07:15:29;;;;;;;;;;;;;;;28.85;43.07;100917.72;5057102;28;70706;-41
2023/03/12 07:18:00;;;;;;;;;;;;;;;28.87;43.27;100919.19;5054678;28;66221;-39
2023/03/12 07:20:32;;;;;;;;;;;;;;;28.88;43.44;100920.84;5088664;27;70350;-40
2023/03/12 07:23:03;;;;;;;;;;;;;;;28.92;43.38;100919.41;5047503;28;66127;-41
2023/03/12 07:25:37;;;;;;;;;;;;;;;28.92;42.87;100916.72;5049382;28;70607;-42
2023/03/12 07:28:08;;;;;;;;;;;;;;;28.95;43.34;100916.28;5049621;28;65559;-40
2023/03/12 07:30:38;;;;;;;;;;;;;;;28.95;42.73;100913.59;5053153;28;69891;-40
2023/03/12 07:33:10;;;;;;;;;;;;;;;28.96;42.57;100907.16;5047409;28;66403;-40
2023/03/12 07:35:40;;;;;;;;;;;;;;;29.02;42.88;100901.97;5045955;28;69323;-39
2023/03/12 07:38:10;;;;;;;;;;;;;;;29.02;42.78;100900.09;5057042;28;67376;-41
2023/03/12 07:40:41;;;;;;;;;;;;;;;29.06;42.65;100897.81;5048297;28;70199;-39
2023/03/12 07:43:11;;;;;;;;;;;;;;;29.11;43.05;100898.03;5076096;27;67239;-40
2023/03/12 07:45:42;;;;;;;;;;;;;;;29.16;43.01;100895.53;5070384;27;69374;-39
2023/03/12 07:48:12;;;;;;;;;;;;;;;29.22;42.72;100893.88;5048566;28;66284;-40
2023/03/12 07:50:42;;;;;;;;;;;;;;;29.25;42.47;100890.75;5049745;28;70541;-40
2023/03/12 07:53:13;;;;;;;;;;;;;;;29.25;42.05;100883.47;5056122;28;66805;-40
2023/03/12 07:55:44;;;;;;;;;;;;;;;29.31;42.13;100884.50;5053445;28;70291;-39
2023/03/12 07:58:15;;;;;;;;;;;;;;;29.30;41.65;100874.75;5053548;28;67381;-40
2023/03/12 08:00:46;;;;;;;;;;;;;;;29.35;41.59;100870.38;5050013;28;69255;-41
2023/03/12 08:03:17;;;;;;;;;;;;;;;29.38;41.95;100871.84;5051527;28;66852;-40
2023/03/12 08:05:57;;;;;;;;;;;;;;;29.43;41.81;100868.50;5051055;28;69329;-41
2023/03/12 08:08:28;;;;;;;;;;;;;;;29.51;41.28;100871.00;5052573;28;65925;-40
2023/03/12 08:10:59;;;;;;;;;;;;;;;29.55;41.54;100864.09;5047251;28;70730;-40
2023/03/12 08:13:29;;;;;;;;;;;;;;;29.57;41.35;100860.16;5050754;28;66230;-42
2023/03/12 08:16:00;;;;;;;;;;;;;;;29.61;41.51;100860.53;5051800;28;70121;-40
2023/03/12 08:18:30;;;;;;;;;;;;;;;29.68;42.04;100864.09;5053167;28;66919;-39
2023/03/12 08:21:01;;;;;;;;;;;;;;;29.94;43.10;100856.94;5052363;27;70376;-39
2023/03/12 08:23:31;;;;;;;;;;;;;;;30.22;44.60;100857.44;5047530;28;66303;-40
2023/03/12 08:26:02;;;;;;;;;;;;;;;30.53;44.80;100852.28;5047198;28;71145;-42
2023/03/12 08:28:51;;;;;;;;;;;;;;;30.80;45.22;100855.66;5049833;28;66966;-42
2023/03/12 08:31:22;;;;;;;;;;;;;;;30.99;44.87;100856.53;5047803;28;70961;-43
2023/03/12 08:33:52;;;;;;;;;;;;;;;31.16;45.17;100853.03;5058969;28;66860;-39
2023/03/12 08:36:23;;;;;;;;;;;;;;;31.31;45.02;100854.56;5043333;28;70008;-41
2023/03/12 08:38:53;;;;;;;;;;;;;;;31.43;44.95;100850.09;5050293;28;66320;-41
2023/03/12 08:41:23;;;;;;;;;;;;;;;31.57;44.90;100854.31;5055037;27;69216;-42
2023/03/12 08:43:54;;;;;;;;;;;;;;;31.69;45.07;100845.44;5045043;28;66688;-42
2023/03/12 08:46:24;;;;;;;;;;;;;;;31.79;45.12;100854.69;5050264;27;70555;-40
2023/03/12 08:48:54;;;;;;;;;;;;;;;31.89;45.09;100851.44;5048836;28;66470;-41
2023/03/12 08:51:25;;;;;;;;;;;;;;;31.97;44.93;100859.28;5047580;28;70654;-40
2023/03/12 08:53:55;;;;;;;;;;;;;;;32.09;44.83;100861.22;5046859;28;66448;-42
2023/03/12 08:56:25;;;;;;;;;;;;;;;32.17;44.83;100858.19;5080132;27;70742;-40
2023/03/12 08:58:57;;;;;;;;;;;;;;;32.24;44.86;100859.78;5047382;27;66141;-41
2023/03/12 09:01:27;;;;;;;;;;;;;;;32.32;44.84;100861.34;5052095;28;70053;-40
2023/03/12 09:03:57;;;;;;;;;;;;;;;32.40;44.89;100863.75;5053064;28;66659;-41
2023/03/12 09:06:28;;;;;;;;;;;;;;;32.46;44.70;100862.00;5047230;28;70348;-41
2023/03/12 09:09:03;;;;;;;;;;;;;;;32.54;44.94;100864.41;5051223;28;66584;-40
2023/03/12 09:11:34;;;;;;;;;;;;;;;32.62;44.69;100871.34;5053689;28;69898;-41
2023/03/12 09:14:05;;;;;;;;;;;;;;;32.67;44.70;100874.22;5047487;27;67236;-40
2023/03/12 09:16:55;;;;;;;;;;;;;;;32.74;44.65;100876.84;5058371;28;70174;-41
2023/03/12 09:19:25;;;;;;;;;;;;;;;32.78;44.57;100881.56;5064048;27;66973;-40
2023/03/12 09:21:56;;;;;;;;;;;;;;;32.85;44.24;100878.75;5043039;28;69366;-43
2023/03/12 09:24:26;;;;;;;;;;;;;;;32.90;44.28;100871.56;5057903;27;66011;-39
2023/03/12 09:26:57;;;;;;;;;;;;;;;32.91;44.45;100875.91;5049212;28;70392;-41
2023/03/12 09:29:27;;;;;;;;;;;;;;;32.97;44.46;100876.03;5052983;27;66856;-42
2023/03/12 09:31:58;;;;;;;;;;;;;;;33.01;43.94;100874.53;5049618;28;69762;-41
2023/03/12 09:34:28;;;;;;;;;;;;;;;33.05;43.95;100876.56;5052226;28;66032;-40
2023/03/12 09:36:59;;;;;;;;;;;;;;;33.09;44.13;100879.63;5050739;28;70459;-42
2023/03/12 09:39:29;;;;;;;;;;;;;;;33.12;44.03;100871.81;5047417;28;66731;-41
2023/03/12 09:41:59;;;;;;;;;;;;;;;33.17;44.32;100878.44;5049131;27;69821;-41
2023/03/12 09:44:40;;;;;;;;;;;;;;;33.20;44.17;100884.22;5055936;27;67023;-41
2023/03/12 09:47:30;;;;;;;;;;;;;;;33.24;44.11;100884.56;5050871;28;69415;-41
2023/03/12 09:50:04;;;;;;;;;;;;;;;33.27;44.07;100878.69;5058453;28;65495;-40
2023/03/12 09:52:38;;;;;;;;;;;;;;;33.28;44.17;100883.06;5043850;28;70524;-40
2023/03/12 09:55:14;;;;;;;;;;;;;;;33.29;44.06;100896.44;5055535;27;66010;-42
2023/03/12 09:57:45;;;;;;;;;;;;;;;33.31;44.08;100893.44;5054307;28;69927;-42
2023/03/12 10:00:17;;;;;;;;;;;;;;;33.31;44.12;100896.16;5048660;28;66170;-40
2023/03/12 10:02:50;;;;;;;;;;;;;;;33.32;44.11;100906.81;5050861;28;70148;-42
2023/03/12 10:05:38;;;;;;;;;;;;;;;33.34;44.06;100909.28;5045917;28;66860;-43
2023/03/12 10:08:09;;;;;;;;;;;;;;;33.34;44.08;100906.56;5046258;28;70134;-42
2023/03/12 10:11:08;;;;;;;;;;;;;;;33.32;44.34;100904.09;5048903;28;67552;-42
2023/03/12 10:13:47;;;;;;;;;;;;;;;33.33;44.36;100904.94;5055785;28;69312;-42
2023/03/12 10:16:18;;;;;;;;;;;;;;;33.33;44.45;100916.63;5054208;28;65370;-47
2023/03/12 10:19:03;;;;;;;;;;;;;;;33.30;44.18;100921.72;5047429;28;69906;-40
2023/03/12 10:21:39;;;;;;;;;;;;;;;33.30;44.44;100917.09;5054883;28;65046;-41
2023/03/12 10:24:16;;;;;;;;;;;;;;;33.12;44.15;100888.13;5045141;28;69977;-42
2023/03/12 10:26:49;;;;;;;;;;;;;;;33.26;44.29;100915.91;5061778;27;65410;-41
2023/03/12 10:29:25;;;;;;;;;;;;;;;33.25;44.41;100919.69;5054078;27;71077;-41
2023/03/12 10:31:59;;;;;;;;;;;;;;;33.26;44.44;100924.06;5048188;28;65630;-43
2023/03/12 10:34:45;;;;;;;;;;;;;;;33.24;44.42;100918.03;5054917;28;70642;-41
2023/03/12 10:37:38;;;;;;;;;;;;;;;33.22;44.36;100922.88;5077592;27;64688;-42
2023/03/12 10:40:13;;;;;;;;;;;;;;;33.20;44.67;100932.34;5048992;28;70346;-41
2023/03/12 10:42:44;;;;;;;;;;;;;;;33.12;44.99;100920.72;5052249;27;66412;-40
2023/03/12 10:45:23;;;;;;;;;;;;;;;32.80;45.30;100928.34;5043915;28;70046;-42
2023/03/12 10:47:56;;;;;;;;;;;;;;;32.47;46.33;100926.94;5043424;28;66438;-42
2023/03/12 10:50:29;;;;;;;;;;;;;;;32.29;46.83;100932.38;5048143;28;69744;-41
2023/03/12 10:53:17;;;;;;;;;;;;;;;32.16;47.34;100935.25;5043476;28;66896;-42
2023/03/12 10:55:58;;;;;;;;;;;;;;;32.03;47.42;100937.06;5044703;28;69840;-42
2023/03/12 10:58:32;;;;;;;;;;;;;;;31.93;47.75;100939.50;5043332;28;66035;-44
2023/03/12 11:01:04;;;;;;;;;;;;;;;31.90;47.74;100939.91;5043571;27;71070;-41
2023/03/12 11:03:35;;;;;;;;;;;;;;;31.82;48.31;100953.78;5045861;27;66696;-41
2023/03/12 11:06:06;;;;;;;;;;;;;;;31.78;48.28;100952.56;5045937;28;70107;-41
2023/03/12 11:08:37;;;;;;;;;;;;;;;31.70;48.57;100955.56;5054920;28;66896;-40
2023/03/12 11:11:09;;;;;;;;;;;;;;;31.68;48.59;100966.66;5052786;28;70098;-41
2023/03/12 11:13:40;;;;;;;;;;;;;;;31.63;48.89;100963.78;5049768;28;66167;-41
2023/03/12 11:16:16;;;;;;;;;;;;;;;31.56;49.06;100966.53;5054412;28;68892;-40
2023/03/12 11:19:00;;;;;;;;;;;;;;;31.52;48.99;100965.31;5055966;27;65661;-40
2023/03/12 11:21:32;;;;;;;;;;;;;;;31.47;49.23;100973.28;5055514;28;70068;-41
2023/03/12 11:24:09;;;;;;;;;;;;;;;31.41;49.78;100963.34;5056286;28;65985;-43
2023/03/12 11:27:02;;;;;;;;;;;;;;;31.41;50.06;100968.75;5048641;28;69555;-42
2023/03/12 11:29:35;;;;;;;;;;;;;;;31.46;50.61;100979.78;5057288;28;67780;-39
2023/03/12 11:32:13;;;;;;;;;;;;;;;31.48;50.80;100982.25;5052013;28;70336;-40
2023/03/12 11:34:48;;;;;;;;;;;;;;;31.48;50.57;100983.09;5052151;28;66631;-41
2023/03/12 11:37:31;;;;;;;;;;;;;;;31.50;50.41;100989.13;5061528;28;70136;-41
2023/03/12 11:40:08;;;;;;;;;;;;;;;31.47;50.88;100992.28;5057425;28;66591;-41
2023/03/12 11:42:53;;;;;;;;;;;;;;;31.45;50.97;100997.06;5053970;28;70215;-42
2023/03/12 11:45:27;;;;;;;;;;;;;;;31.44;51.64;100992.72;5056805;28;67038;-39
2023/03/12 11:48:03;;;;;;;;;;;;;;;31.43;52.75;100987.53;5057492;28;70410;-41
2023/03/12 11:50:56;;;;;;;;;;;;;;;31.42;52.58;101005.66;5058871;28;66182;-40
2023/03/12 11:53:29;;;;;;;;;;;;;;;31.40;52.66;101005.06;5049241;27;70717;-40
2023/03/12 11:56:10;;;;;;;;;;;;;;;31.38;53.26;100999.03;5054581;28;67191;-40
2023/03/12 11:58:41;;;;;;;;;;;;;;;31.40;53.41;101002.34;5052508;28;70387;-39
2023/03/12 12:01:11;;;;;;;;;;;;;;;31.39;54.03;101003.38;5053214;28;65748;-40
2023/03/12 12:03:53;;;;;;;;;;;;;;;31.40;53.78;100999.66;5055012;28;70818;-41
2023/03/12 12:06:24;;;;;;;;;;;;;;;31.44;54.02;101006.28;5053226;28;66454;-41
2023/03/12 12:08:57;;;;;;;;;;;;;;;31.46;54.79;101009.59;5052262;28;70863;-41
2023/03/12 12:11:33;;;;;;;;;;;;;;;31.48;55.66;101015.63;5050653;28;66196;-42
2023/03/12 12:14:10;;;;;;;;;;;;;;;31.53;56.06;101021.19;5053309;27;69900;-39
2023/03/12 12:16:40;;;;;;;;;;;;;;;31.52;55.83;101024.97;5054567;28;66074;-40
2023/03/12 12:19:11;;;;;;;;;;;;;;;31.52;56.46;101016.00;5040884;28;69464;-40
2023/03/12 12:21:51;;;;;;;;;;;;;;;31.53;56.55;101026.63;5044492;28;66636;-40
2023/03/12 12:24:41;;;;;;;;;;;;;;;31.52;56.02;101022.25;5051243;28;69524;-40
2023/03/12 12:27:23;;;;;;;;;;;;;;;31.65;55.21;101032.19;5057141;28;64890;-40
2023/03/12 12:29:57;;;;;;;;;;;;;;;31.73;54.93;101036.47;5050277;28;70194;-40
2023/03/12 12:32:47;;;;;;;;;;;;;;;31.76;54.08;101036.03;5050101;28;66561;-40
2023/03/12 12:35:22;;;;;;;;;;;;;;;31.78;53.94;101034.75;5045576;28;70827;-42
2023/03/12 12:37:57;;;;;;;;;;;;;;;31.81;53.63;101038.91;5050706;27;65938;-44
2023/03/12 12:40:36;;;;;;;;;;;;;;;31.82;53.39;101046.00;5056730;28;70055;-40
2023/03/12 12:43:29;;;;;;;;;;;;;;;31.83;53.20;101050.38;5052647;28;66813;-41
2023/03/12 12:46:04;;;;;;;;;;;;;;;31.82;53.18;101052.25;5051454;28;70148;-40
2023/03/12 12:48:37;;;;;;;;;;;;;;;31.82;52.90;101051.44;5060663;28;66317;-42
2023/03/12 12:51:08;;;;;;;;;;;;;;;31.80;52.83;101053.53;5053186;28;70559;-41
2023/03/12 12:53:57;;;;;;;;;;;;;;;31.79;52.62;101057.31;5061251;27;65219;-41
2023/03/12 12:56:40;;;;;;;;;;;;;;;31.78;52.86;101058.34;5044754;28;69272;-41
2023/03/12 12:59:20;;;;;;;;;;;;;;;31.76;52.80;101061.28;5050620;28;66577;-42
2023/03/12 13:01:53;;;;;;;;;;;;;;;31.75;52.63;101059.59;5051475;28;70355;-42
2023/03/12 13:04:37;;;;;;;;;;;;;;;31.73;52.59;101064.44;5046889;27;66702;-40